Terminal Aerodrome Forecast
Issued by NWS Brownsville, TX

Home | Current Version | Previous Version | Text Only | Print | Product List | Glossary On
Versions: 1 2 3 4 5 6 7 8 9 10 11 12 13 14 15 16 17 18 19
000
FTUS44 KBRO 222300
TAFBRO
TAF
KBRO 222323Z 2300/2324 16015KT P6SM SCT050
     FM230300 17015KT P6SM VCTS BKN045CB
      TEMPO 2303/2305 VRB40KT 2SM +TSRA BKN020CB
     FM230600 22008KT P6SM BKN120
     FM231500 26010KT P6SM FEW035=

USA.gov is the U.S. government's official web portal to all federal, state and local government web resources and services.